Time;durP1;ratioP1;P1;durP2;ratioP2;P2;SDS_P1;SDS_P2;PMS_P1;PMS_P2;Temp;Humidity;BMP_temperature;BMP_pressure;BME280_temperature;BME280_humidity;BME280_pressure;Samples;Min_cycle;Max_cycle;Signal;HPM_P1;HPM_P2
2023/08/01 00:00:41;;;;;;;4.28;2.33;;;;;;;14.44;61.58;99643.38;4971242;28;20038;-69
2023/08/01 00:03:13;;;;;;;5.82;2.13;;;;;;;14.36;61.66;99647.38;4965071;28;20073;-70
2023/08/01 00:05:44;;;;;;;13.25;2.90;;;;;;;13.84;63.56;99646.00;4977386;28;20038;-72
2023/08/01 00:08:24;;;;;;;9.43;2.03;;;;;;;13.92;63.36;99646.31;4977043;28;20038;-68
2023/08/01 00:10:50;;;;;;;6.05;1.98;;;;;;;14.39;61.88;99641.09;4969118;28;20030;-67
2023/08/01 00:13:18;;;;;;;8.73;1.75;;;;;;;14.11;62.32;99637.06;4945219;28;20822;-67
2023/08/01 00:15:46;;;;;;;3.40;1.90;;;;;;;14.02;62.60;99640.38;4956139;28;20113;-66
2023/08/01 00:18:24;;;;;;;6.45;2.30;;;;;;;14.41;61.61;99627.84;4958570;28;20516;-66
2023/08/01 00:20:53;;;;;;;5.40;2.00;;;;;;;14.21;62.28;99621.41;4969373;28;20026;-66
2023/08/01 00:23:23;;;;;;;6.53;2.60;;;;;;;14.46;61.35;99625.72;4948985;28;20771;-66
2023/08/01 00:25:51;;;;;;;6.90;2.35;;;;;;;14.27;61.43;99611.28;4971703;28;20046;-67
2023/08/01 00:28:19;;;;;;;5.43;2.28;;;;;;;14.49;60.91;99615.78;4975115;28;20050;-67
2023/08/01 00:31:08;;;;;;;9.38;2.33;;;;;;;14.33;61.40;99610.00;4984554;28;20967;-67
2023/08/01 00:33:37;;;;;;;7.63;1.93;;;;;;;14.13;62.17;99614.97;4952459;28;20085;-67
2023/08/01 00:36:03;;;;;;;4.45;1.70;;;;;;;14.09;62.07;99610.88;4958722;28;20328;-68
2023/08/01 00:38:30;;;;;;;5.55;1.92;;;;;;;14.01;62.73;99605.38;4959256;28;22034;-68
2023/08/01 00:41:01;;;;;;;8.50;2.97;;;;;;;14.14;62.13;99584.25;4974350;28;20390;-68
2023/08/01 00:43:37;;;;;;;4.40;2.33;;;;;;;14.35;61.16;99595.78;4955098;28;21052;-71
2023/08/01 00:46:10;;;;;;;6.82;2.45;;;;;;;14.29;61.68;99587.53;4954006;28;20045;-70
2023/08/01 00:48:46;;;;;;;;;;;;;;;14.33;61.41;99594.22;4953457;28;20065;-72
2023/08/01 00:51:12;;;;;;;9.20;2.10;;;;;;;14.08;62.08;99584.75;4965208;28;20114;-73
2023/08/01 00:53:46;;;;;;;9.00;2.33;;;;;;;14.23;61.70;99591.47;4932032;28;20057;-69
2023/08/01 00:56:14;;;;;;;3.65;1.90;;;;;;;14.03;62.49;99582.47;4951005;28;20058;-70
2023/08/01 00:58:42;;;;;;;5.55;3.00;;;;;;;14.07;62.33;99583.06;4958614;28;20038;-68
2023/08/01 01:01:07;;;;;;;10.45;2.67;;;;;;;14.40;61.12;99576.19;4968412;28;20034;-69
2023/08/01 01:03:43;;;;;;;6.38;2.03;;;;;;;14.50;61.17;99574.56;4947409;28;20046;-69
2023/08/01 01:06:21;;;;;;;8.40;2.75;;;;;;;14.49;60.83;99565.00;4964389;28;20035;-69
2023/08/01 01:08:47;;;;;;;10.75;2.85;;;;;;;14.39;61.21;99564.00;4958697;28;20097;-69
2023/08/01 01:11:33;;;;;;;7.97;3.40;;;;;;;14.35;61.22;99555.53;4945554;28;20041;-69
2023/08/01 01:13:58;;;;;;;11.32;3.20;;;;;;;14.47;60.75;99556.41;4942938;28;20054;-70
2023/08/01 01:16:26;;;;;;;6.13;3.13;;;;;;;14.30;61.17;99552.38;4949756;28;20052;-69
2023/08/01 01:18:59;;;;;;;13.55;3.40;;;;;;;13.89;62.71;99551.97;4957161;28;20047;-69
2023/08/01 01:21:42;;;;;;;8.68;2.42;;;;;;;13.97;62.30;99545.31;4948713;28;20045;-67
2023/08/01 01:24:13;;;;;;;9.00;3.33;;;;;;;14.04;61.90;99541.25;4954073;28;20046;-66
2023/08/01 01:26:46;;;;;;;13.73;4.05;;;;;;;13.69;63.18;99548.19;4944206;28;20035;-67
2023/08/01 01:29:12;;;;;;;10.38;3.35;;;;;;;14.09;61.79;99547.00;4934170;28;20047;-66
2023/08/01 01:31:38;;;;;;;17.52;4.10;;;;;;;14.15;61.39;99538.66;4945954;28;20027;-67
2023/08/01 01:34:12;;;;;;;10.00;3.20;;;;;;;14.25;61.53;99539.59;4925973;28;20121;-67
2023/08/01 01:36:37;;;;;;;15.20;2.92;;;;;;;14.18;61.59;99542.84;4944354;28;20058;-67
2023/08/01 01:39:05;;;;;;;7.47;2.53;;;;;;;14.32;61.14;99535.56;4951686;28;20604;-68
2023/08/01 01:41:41;;;;;;;9.75;2.42;;;;;;;14.09;61.56;99529.44;4958195;28;20042;-67
2023/08/01 01:44:07;;;;;;;6.38;2.33;;;;;;;14.27;60.99;99532.44;4963580;28;20054;-67
2023/08/01 01:46:37;;;;;;;7.07;2.53;;;;;;;14.20;61.30;99531.25;4963883;28;20799;-65
2023/08/01 01:49:05;;;;;;;12.05;3.00;;;;;;;14.20;61.36;99530.41;4969387;28;20074;-66
2023/08/01 01:51:40;;;;;;;7.82;2.35;;;;;;;14.19;61.30;99529.59;4963254;28;21210;-68
2023/08/01 01:54:08;;;;;;;6.78;3.13;;;;;;;14.06;61.61;99523.59;4957358;28;20173;-69
2023/08/01 01:56:36;;;;;;;8.32;2.10;;;;;;;14.32;61.27;99525.06;4952779;28;20038;-66
2023/08/01 01:59:03;;;;;;;14.68;3.67;;;;;;;14.15;61.69;99520.25;4950695;28;20119;-71
2023/08/01 02:01:29;;;;;;;7.13;2.53;;;;;;;14.37;61.16;99511.56;4965877;28;20642;-68
2023/08/01 02:03:59;;;;;;;8.68;2.67;;;;;;;14.55;60.60;99511.94;4956325;28;20045;-65
2023/08/01 02:06:36;;;;;;;;;;;;;;;;;;;;;
2023/08/01 02:09:09;;;;;;;9.70;3.13;;;;;;;14.59;60.52;99510.75;4958480;28;20832;-70
2023/08/01 02:11:35;;;;;;;12.38;3.10;;;;;;;14.08;61.99;99498.88;4962810;28;20410;-70
2023/08/01 02:14:05;;;;;;;10.52;2.45;;;;;;;13.65;63.30;99503.91;4946155;28;20039;-69
2023/08/01 02:16:35;;;;;;;15.45;3.47;;;;;;;14.15;61.30;99497.44;4966463;28;20112;-70
2023/08/01 02:19:08;;;;;;;14.25;3.08;;;;;;;13.91;61.99;99497.53;4967459;28;20046;-67
2023/08/01 02:21:35;;;;;;;12.63;4.22;;;;;;;14.05;61.54;99495.63;4966223;28;20030;-68
2023/08/01 02:24:01;;;;;;;6.22;2.92;;;;;;;14.09;61.66;99491.81;4943224;28;20576;-68
2023/08/01 02:26:35;;;;;;;10.40;3.38;;;;;;;14.00;61.60;99493.34;4950228;28;20038;-67
2023/08/01 02:29:05;;;;;;;15.15;3.75;;;;;;;14.06;61.40;99481.56;4929165;28;20077;-67
2023/08/01 02:31:38;;;;;;;6.50;3.03;;;;;;;13.89;61.92;99480.22;4942822;28;20557;-68
2023/08/01 02:34:06;;;;;;;12.35;3.15;;;;;;;13.68;62.27;99472.19;4951933;28;20054;-68
2023/08/01 02:36:32;;;;;;;16.38;2.88;;;;;;;13.59;62.58;99473.72;4951339;28;20584;-67
2023/08/01 02:39:00;;;;;;;12.52;3.65;;;;;;;13.37;62.84;99469.19;4921741;28;20054;-67
2023/08/01 02:41:25;;;;;;;8.00;2.85;;;;;;;13.58;62.51;99477.25;4951861;28;20057;-67
2023/08/01 02:43:51;;;;;;;12.88;2.83;;;;;;;13.48;62.36;99471.03;4926751;28;20054;-67
2023/08/01 02:46:33;;;;;;;10.25;2.90;;;;;;;13.79;61.41;99463.50;4933099;28;20060;-67
2023/08/01 02:49:01;;;;;;;7.68;3.10;;;;;;;13.72;61.29;99468.38;4953370;28;20050;-67
2023/08/01 02:51:31;;;;;;;14.13;3.33;;;;;;;13.68;61.27;99465.13;4947065;28;20034;-67
2023/08/01 02:53:57;;;;;;;12.38;2.88;;;;;;;13.71;61.01;99471.94;4957878;28;20045;-69
2023/08/01 02:56:27;;;;;;;8.77;2.15;;;;;;;13.56;61.52;99470.44;4948402;28;20062;-69
2023/08/01 02:58:52;;;;;;;13.75;3.38;;;;;;;13.63;61.20;99463.78;4924834;28;20051;-71
2023/08/01 03:01:18;;;;;;;14.07;2.80;;;;;;;13.55;61.39;99469.59;4941826;28;20437;-70
2023/08/01 03:03:55;;;;;;;12.20;3.30;;;;;;;13.07;62.53;99467.88;4963491;28;20126;-69
2023/08/01 03:06:39;;;;;;;7.40;2.55;;;;;;;13.13;62.37;99477.06;4960289;28;20046;-68
2023/08/01 03:09:07;;;;;;;8.63;2.88;;;;;;;13.28;61.95;99480.38;4972342;28;20137;-69
2023/08/01 03:11:38;;;;;;;10.30;3.08;;;;;;;13.19;61.98;99474.00;4967986;28;20111;-68
2023/08/01 03:14:06;;;;;;;5.25;2.60;;;;;;;12.98;62.98;99472.94;4954123;28;20093;-69
2023/08/01 03:16:32;;;;;;;7.07;2.17;;;;;;;13.40;61.72;99476.81;4968410;28;20097;-65
2023/08/01 03:19:04;;;;;;;17.70;3.47;;;;;;;13.20;62.26;99472.22;4957505;28;20059;-66
2023/08/01 03:21:41;;;;;;;9.80;2.92;;;;;;;13.23;62.22;99479.88;4965459;28;20050;-64
2023/08/01 03:24:24;;;;;;;13.25;3.55;;;;;;;13.21;62.07;99473.91;4968175;28;20733;-68
2023/08/01 03:26:49;;;;;;;7.97;2.53;;;;;;;13.38;61.60;99470.84;4969396;28;20058;-68
2023/08/01 03:29:19;;;;;;;12.10;2.83;;;;;;;13.19;62.38;99470.56;4958537;28;20109;-68
2023/08/01 03:31:47;;;;;;;9.60;3.00;;;;;;;13.32;61.55;99476.56;4969980;28;20034;-69
2023/08/01 03:34:15;;;;;;;10.20;3.67;;;;;;;13.29;61.88;99482.88;4929768;28;20129;-68
2023/08/01 03:37:03;;;;;;;10.27;2.60;;;;;;;13.31;61.60;99482.75;4937562;28;20050;-68
2023/08/01 03:39:31;;;;;;;8.35;2.50;;;;;;;13.20;62.02;99495.81;4961636;28;20054;-68
2023/08/01 03:41:57;;;;;;;8.82;2.67;;;;;;;13.15;61.73;99495.31;4966894;28;20394;-65
2023/08/01 03:44:32;;;;;;;5.53;2.35;;;;;;;12.58;63.98;99487.09;4946994;28;20108;-65
2023/08/01 03:46:59;;;;;;;11.88;2.63;;;;;;;13.23;62.05;99490.38;4966012;28;20042;-65
2023/08/01 03:49:32;;;;;;;8.52;2.55;;;;;;;12.31;64.71;99489.00;4940717;28;20054;-66
2023/08/01 03:51:57;;;;;;;9.57;3.28;;;;;;;12.89;62.81;99490.16;4945421;28;20046;-66
2023/08/01 03:54:31;;;;;;;10.90;2.42;;;;;;;13.15;62.01;99492.69;4941538;28;20047;-66
2023/08/01 03:57:14;;;;;;;9.50;2.73;;;;;;;12.99;62.09;99491.19;4934236;28;20058;-66
2023/08/01 03:59:42;;;;;;;4.40;2.35;;;;;;;12.93;62.42;99480.31;4936439;28;20992;-66
2023/08/01 04:02:10;;;;;;;6.50;2.33;;;;;;;12.75;62.90;99485.91;4951316;28;20030;-66
2023/08/01 04:04:37;;;;;;;15.93;2.90;;;;;;;12.39;63.96;99476.22;4943367;28;20097;-66
2023/08/01 04:07:05;;;;;;;8.88;2.88;;;;;;;12.80;62.75;99483.78;4952283;28;20121;-66
2023/08/01 04:09:33;;;;;;;6.53;3.10;;;;;;;13.03;62.01;99479.53;4963934;28;20500;-67
2023/08/01 04:12:03;;;;;;;12.43;3.83;;;;;;;13.10;61.50;99480.75;4972178;28;20041;-68
2023/08/01 04:14:40;;;;;;;13.80;3.38;;;;;;;13.22;61.12;99470.31;4939836;28;20054;-68
2023/08/01 04:17:15;;;;;;;7.70;2.30;;;;;;;13.32;60.90;99471.31;4970810;28;20026;-68
2023/08/01 04:19:46;;;;;;;7.63;3.03;;;;;;;13.26;61.01;99461.28;4968115;28;20042;-66
2023/08/01 04:22:19;;;;;;;6.95;2.65;;;;;;;13.16;61.23;99460.25;4968172;28;20467;-65
2023/08/01 04:24:53;;;;;;;10.13;2.85;;;;;;;12.76;62.36;99463.16;4967151;28;20122;-68
2023/08/01 04:27:23;;;;;;;10.25;2.30;;;;;;;12.72;62.48;99457.31;4968037;28;20049;-68
2023/08/01 04:29:54;;;;;;;12.32;3.13;;;;;;;12.82;62.08;99457.47;4958904;28;20053;-65
2023/08/01 04:32:19;;;;;;;8.80;2.80;;;;;;;12.63;62.40;99458.75;4970032;28;20045;-65
2023/08/01 04:34:50;;;;;;;11.45;2.00;;;;;;;12.80;61.88;99454.13;4947444;28;20046;-65
2023/08/01 04:37:25;;;;;;;5.28;2.13;;;;;;;12.37;62.85;99451.91;4967797;28;20065;-65
2023/08/01 04:39:56;;;;;;;5.57;2.20;;;;;;;12.62;62.64;99457.06;4951988;28;20524;-65
2023/08/01 04:42:21;;;;;;;7.05;1.75;;;;;;;12.40;63.44;99467.41;4950230;28;20045;-65
2023/08/01 04:44:47;;;;;;;6.40;1.95;;;;;;;12.74;62.29;99465.06;4938737;28;20050;-70
2023/08/01 04:47:18;;;;;;;7.97;2.42;;;;;;;13.13;61.31;99466.56;4968869;28;20598;-71
2023/08/01 04:49:43;;;;;;;6.60;2.15;;;;;;;13.18;60.68;99459.19;4961454;28;20062;-69
2023/08/01 04:52:25;;;;;;;9.85;2.22;;;;;;;13.15;60.95;99469.09;4962946;28;20037;-70
2023/08/01 04:54:53;;;;;;;8.57;2.40;;;;;;;13.29;60.74;99476.78;4954942;28;20042;-70
2023/08/01 04:57:23;;;;;;;7.60;2.33;;;;;;;13.42;60.56;99477.53;4969872;28;20060;-68
2023/08/01 04:59:57;;;;;;;6.18;2.20;;;;;;;13.47;59.91;99475.44;4947070;28;20046;-67
2023/08/01 05:02:29;;;;;;;4.78;1.75;;;;;;;13.32;60.29;99471.31;4964932;28;20030;-68
2023/08/01 05:04:58;;;;;;;10.20;2.30;;;;;;;13.35;59.94;99471.09;4968213;28;20042;-68
2023/08/01 05:07:43;;;;;;;4.25;1.65;;;;;;;13.17;61.02;99477.69;4967636;28;20030;-69
2023/08/01 05:10:09;;;;;;;7.00;2.10;;;;;;;13.48;59.83;99481.50;4972698;28;20046;-67
2023/08/01 05:12:35;;;;;;;8.50;2.90;;;;;;;13.63;59.79;99484.78;4965176;28;20481;-65
2023/08/01 05:15:06;;;;;;;13.50;2.85;;;;;;;14.08;58.43;99480.47;4968810;28;20026;-66
2023/08/01 05:17:34;;;;;;;5.80;1.77;;;;;;;13.98;58.63;99483.94;4942962;28;20661;-67
2023/08/01 05:20:09;;;;;;;;;;;;;;;;;;;;;
2023/08/01 05:22:45;;;;;;;4.22;2.15;;;;;;;13.79;59.70;99474.00;4955962;28;20055;-69
2023/08/01 05:25:23;;;;;;;8.55;2.10;;;;;;;13.48;59.97;99478.88;4940222;28;20042;-68
2023/08/01 05:27:56;;;;;;;6.55;2.00;;;;;;;13.67;59.76;99470.50;4943088;28;20146;-68
2023/08/01 05:30:29;;;;;;;5.97;1.80;;;;;;;13.72;59.55;99463.97;4964452;28;20030;-69
2023/08/01 05:32:57;;;;;;;8.10;3.10;;;;;;;13.16;61.01;99481.25;4966363;28;20200;-69
2023/08/01 05:35:26;;;;;;;5.47;1.63;;;;;;;13.39;60.35;99483.03;4962107;28;20427;-69
2023/08/01 05:37:59;;;;;;;9.23;2.40;;;;;;;13.76;59.97;99482.91;4954833;28;20038;-71
2023/08/01 05:40:25;;;;;;;5.15;1.73;;;;;;;14.09;58.92;99483.94;4962879;28;20038;-69
2023/08/01 05:42:51;;;;;;;6.18;2.47;;;;;;;13.55;59.98;99487.16;4956905;28;20045;-65
2023/08/01 05:45:22;;;;;;;5.05;2.67;;;;;;;13.90;59.11;99487.97;4978624;28;20505;-68
2023/08/01 05:47:49;;;;;;;5.10;1.38;;;;;;;13.07;61.24;99486.25;4963506;28;20038;-67
2023/08/01 05:50:17;;;;;;;3.92;1.50;;;;;;;13.47;60.12;99490.31;4966784;28;20049;-68
2023/08/01 05:52:48;;;;;;;2.75;1.17;;;;;;;13.30;60.50;99489.78;4957330;28;20108;-68
2023/08/01 05:55:18;;;;;;;4.70;1.58;;;;;;;13.36;60.18;99487.66;4961558;28;20710;-68
2023/08/01 05:57:46;;;;;;;5.05;1.70;;;;;;;13.38;60.02;99477.88;4961866;28;20483;-68
2023/08/01 06:00:12;;;;;;;8.07;2.38;;;;;;;13.78;59.36;99481.03;4953551;28;20655;-66
2023/08/01 06:02:38;;;;;;;14.85;2.33;;;;;;;13.93;58.85;99482.47;4935098;28;20116;-67
2023/08/01 06:05:05;;;;;;;5.30;1.30;;;;;;;14.35;58.01;99485.38;4965952;28;20710;-67
2023/08/01 06:07:33;;;;;;;9.30;1.83;;;;;;;15.21;56.78;99475.09;4960000;28;20141;-67
2023/08/01 06:10:01;;;;;;;8.75;1.92;;;;;;;15.92;54.61;99477.16;4962847;28;20034;-67
2023/08/01 06:12:28;;;;;;;5.10;1.67;;;;;;;16.30;53.25;99473.06;4960411;28;20041;-68
2023/08/01 06:15:04;;;;;;;5.43;1.00;;;;;;;16.90;50.79;99470.50;4960575;28;20121;-68
2023/08/01 06:17:47;;;;;;;2.80;0.82;;;;;;;16.16;52.06;99471.63;4961399;28;20030;-68
2023/08/01 06:20:33;;;;;;;4.75;1.38;;;;;;;17.74;49.07;99481.38;4965680;28;20504;-68
2023/08/01 06:23:09;;;;;;;3.78;1.45;;;;;;;16.44;51.50;99477.16;4963173;28;20093;-67
2023/08/01 06:25:42;;;;;;;5.32;0.80;;;;;;;18.46;47.18;99471.16;4958544;28;20105;-68
2023/08/01 06:28:17;;;;;;;3.83;0.90;;;;;;;18.05;47.98;99475.84;4939428;28;20042;-68
2023/08/01 06:30:50;;;;;;;4.50;1.13;;;;;;;18.08;46.55;99478.22;4952306;28;20038;-68
2023/08/01 06:33:22;;;;;;;4.53;1.30;;;;;;;18.31;48.00;99470.78;4961269;28;20950;-69
2023/08/01 06:35:51;;;;;;;4.57;0.90;;;;;;;17.62;47.87;99474.56;4964862;28;20070;-68
2023/08/01 06:38:21;;;;;;;2.58;0.70;;;;;;;17.72;47.93;99477.22;4961936;28;20038;-69
2023/08/01 06:40:49;;;;;;;3.78;0.68;;;;;;;17.57;47.12;99485.56;4948250;28;20211;-68
2023/08/01 06:43:17;;;;;;;7.38;0.60;;;;;;;15.74;52.41;99492.72;4953994;28;20533;-68
2023/08/01 06:45:46;;;;;;;7.18;1.02;;;;;;;16.59;50.65;99484.56;4963839;28;20041;-68
2023/08/01 06:48:15;;;;;;;9.20;0.80;;;;;;;15.21;54.16;99487.41;4952024;28;20038;-68
2023/08/01 06:50:43;;;;;;;6.05;0.52;;;;;;;15.32;53.81;99487.41;4950050;28;20035;-68
2023/08/01 06:53:09;;;;;;;3.55;0.80;;;;;;;15.79;53.55;99487.88;4941568;28;20042;-68
2023/08/01 06:55:45;;;;;;;3.95;0.30;;;;;;;15.55;52.62;99488.13;4963470;28;20110;-68
2023/08/01 06:58:11;;;;;;;3.47;0.77;;;;;;;15.53;53.34;99488.28;4933062;28;20039;-68
2023/08/01 07:00:41;;;;;;;3.85;0.57;;;;;;;15.51;53.59;99498.09;4941732;28;20485;-67
2023/08/01 07:03:09;;;;;;;4.13;0.30;;;;;;;15.24;53.78;99495.09;4936081;28;20054;-68
2023/08/01 07:05:44;;;;;;;1.67;0.30;;;;;;;14.64;54.61;99495.44;4948214;28;20035;-67
2023/08/01 07:08:17;;;;;;;3.25;0.30;;;;;;;14.71;55.60;99503.69;4945376;28;20117;-67
2023/08/01 07:10:57;;;;;;;5.07;0.60;;;;;;;16.29;51.43;99497.78;4947034;28;20494;-67
2023/08/01 07:13:28;;;;;;;4.18;0.20;;;;;;;17.68;48.00;99491.66;4937877;28;20085;-69
2023/08/01 07:15:59;;;;;;;2.55;0.68;;;;;;;18.46;45.18;99487.84;4939894;28;20503;-68
2023/08/01 07:18:30;;;;;;;1.98;0.10;;;;;;;18.43;46.79;99489.94;4946933;28;20042;-68
2023/08/01 07:21:05;;;;;;;3.67;0.50;;;;;;;18.97;43.57;99484.81;4928699;28;20057;-68
2023/08/01 07:23:35;;;;;;;3.28;0.40;;;;;;;19.44;42.64;99480.13;4956674;28;20383;-69
2023/08/01 07:26:00;;;;;;;4.75;0.73;;;;;;;20.86;40.82;99485.09;4956774;28;20046;-67
2023/08/01 07:28:26;;;;;;;1.67;0.20;;;;;;;22.42;36.75;99471.72;4959362;28;20113;-67
2023/08/01 07:30:59;;;;;;;1.80;0.45;;;;;;;20.15;40.97;99480.09;4948266;28;20045;-68
2023/08/01 07:33:26;;;;;;;1.75;0.30;;;;;;;18.20;43.57;99486.84;4953490;28;20042;-69
2023/08/01 07:35:52;;;;;;;2.95;0.20;;;;;;;19.74;42.34;99475.38;4966523;28;20034;-69
2023/08/01 07:38:18;;;;;;;2.50;0.30;;;;;;;22.11;39.33;99480.47;4959520;28;20050;-67
2023/08/01 07:40:44;;;;;;;1.90;0.30;;;;;;;22.64;37.73;99483.44;4945208;28;20124;-67
2023/08/01 07:43:09;;;;;;;3.90;0.30;;;;;;;21.21;38.85;99483.16;4954870;28;20042;-68
2023/08/01 07:45:34;;;;;;;2.88;0.30;;;;;;;20.91;38.84;99485.47;4963020;28;20034;-69
2023/08/01 07:48:01;;;;;;;1.60;0.30;;;;;;;21.85;37.29;99486.00;4967138;28;20042;-68
2023/08/01 07:50:26;;;;;;;0.85;0.17;;;;;;;23.74;36.15;99485.03;4967733;28;20112;-66
2023/08/01 07:52:52;;;;;;;1.63;0.40;;;;;;;24.74;33.27;99483.78;4946026;28;20502;-68
2023/08/01 07:55:18;;;;;;;1.83;0.65;;;;;;;23.57;34.73;99482.53;4944263;28;20034;-69
2023/08/01 07:57:44;;;;;;;2.97;0.32;;;;;;;22.43;35.95;99488.53;4960508;28;20043;-69
2023/08/01 08:00:10;;;;;;;1.92;0.50;;;;;;;18.55;42.98;99487.94;4967605;28;20469;-68
2023/08/01 08:02:41;;;;;;;0.98;0.30;;;;;;;17.57;45.41;99493.47;4963406;28;20586;-68
2023/08/01 08:05:07;;;;;;;2.38;0.20;;;;;;;16.26;49.21;99492.75;4948263;28;20133;-69
2023/08/01 08:07:33;;;;;;;1.50;0.30;;;;;;;15.85;49.69;99505.00;4948101;28;20117;-69
2023/08/01 08:09:58;;;;;;;3.42;0.35;;;;;;;18.66;43.83;99493.03;4947003;28;20099;-68
2023/08/01 08:12:24;;;;;;;0.50;0.20;;;;;;;21.08;39.42;99483.66;4948590;28;20465;-68
2023/08/01 08:14:49;;;;;;;0.98;0.20;;;;;;;21.82;37.99;99496.16;4950967;28;20027;-68
2023/08/01 08:17:15;;;;;;;0.95;0.17;;;;;;;20.18;39.73;99479.81;4946844;28;20070;-69
2023/08/01 08:19:41;;;;;;;5.53;0.22;;;;;;;20.24;39.07;99484.50;4968422;28;20041;-67
2023/08/01 08:22:06;;;;;;;1.60;0.32;;;;;;;20.92;38.65;99489.75;4966439;28;20042;-68
2023/08/01 08:24:32;;;;;;;0.63;0.38;;;;;;;18.92;42.60;99498.50;4965990;28;20047;-68
2023/08/01 08:26:58;;;;;;;0.65;0.20;;;;;;;19.15;41.54;99498.91;4964704;28;20125;-69
2023/08/01 08:29:23;;;;;;;0.52;0.20;;;;;;;20.35;40.56;99497.50;4966404;28;20045;-68
2023/08/01 08:31:49;;;;;;;1.55;0.20;;;;;;;22.82;36.15;99485.88;4963304;28;20037;-68
2023/08/01 08:34:14;;;;;;;0.50;0.10;;;;;;;21.64;36.71;99494.50;4965857;28;20140;-69
2023/08/01 08:36:40;;;;;;;1.10;0.10;;;;;;;21.54;37.23;99493.84;4964663;28;20034;-68
2023/08/01 08:39:06;;;;;;;0.73;0.10;;;;;;;21.06;38.82;99496.25;4950034;28;20422;-69
2023/08/01 08:41:52;;;;;;;2.33;0.03;;;;;;;22.06;36.57;99508.59;4949420;28;20109;-68
2023/08/01 08:44:24;;;;;;;1.15;0.10;;;;;;;22.06;35.51;99503.25;4950074;28;20122;-68
2023/08/01 08:46:52;;;;;;;0.55;0.10;;;;;;;21.24;37.58;99504.09;4948461;28;20090;-67
2023/08/01 08:49:20;;;;;;;0.22;0.20;;;;;;;19.20;40.43;99488.66;4959515;28;20047;-67
2023/08/01 08:51:46;;;;;;;0.28;0.10;;;;;;;18.64;42.55;99502.94;4968180;28;20154;-67
2023/08/01 08:54:13;;;;;;;0.82;0.10;;;;;;;17.52;44.44;99510.75;4958677;28;20050;-68
2023/08/01 08:56:40;;;;;;;0.28;0.10;;;;;;;17.58;46.11;99502.22;4958762;28;20410;-67
2023/08/01 08:59:10;;;;;;;0.35;0.10;;;;;;;18.95;42.20;99497.38;4965823;28;20140;-68
2023/08/01 09:01:36;;;;;;;2.60;0.10;;;;;;;21.01;38.84;99503.88;4960700;28;20050;-67
2023/08/01 09:04:02;;;;;;;1.13;0.35;;;;;;;22.12;35.42;99491.97;4967126;28;20146;-68
2023/08/01 09:06:31;;;;;;;0.40;0.10;;;;;;;21.65;36.96;99501.50;4980540;28;20065;-67
2023/08/01 09:09:08;;;;;;;1.10;0.10;;;;;;;21.77;37.50;99494.81;4966136;28;20089;-68
2023/08/01 09:11:39;;;;;;;0.57;0.10;;;;;;;22.26;34.99;99503.75;4980302;28;20038;-68
2023/08/01 09:14:05;;;;;;;0.52;0.13;;;;;;;21.42;37.20;99500.44;4966711;28;20046;-68
2023/08/01 09:16:33;;;;;;;1.05;0.10;;;;;;;17.79;44.05;99496.81;4965300;28;20026;-67
2023/08/01 09:18:58;;;;;;;1.58;0.10;;;;;;;18.58;42.92;99500.88;4966654;28;20050;-67
2023/08/01 09:21:24;;;;;;;3.20;0.10;;;;;;;18.16;44.42;99501.28;4963560;28;20520;-68
2023/08/01 09:23:50;;;;;;;0.85;0.10;;;;;;;16.69;46.76;99500.44;4964731;28;20096;-67
2023/08/01 09:26:17;;;;;;;1.25;0.30;;;;;;;17.43;45.67;99499.16;4963446;28;20663;-68
2023/08/01 09:28:42;;;;;;;0.65;0.10;;;;;;;17.78;44.95;99506.53;4966647;28;20407;-67
2023/08/01 09:31:10;;;;;;;1.77;0.10;;;;;;;19.02;42.17;99501.06;4965132;28;20046;-68
2023/08/01 09:33:40;;;;;;;0.63;0.20;;;;;;;20.17;41.70;99494.88;4964424;28;20426;-67
2023/08/01 09:36:07;;;;;;;1.65;0.17;;;;;;;20.40;40.35;99503.16;4963012;28;20042;-68
2023/08/01 09:38:37;;;;;;;0.30;0.10;;;;;;;20.13;40.30;99502.34;4979641;28;20270;-68
2023/08/01 09:41:03;;;;;;;1.50;0.22;;;;;;;19.17;42.23;99498.75;4967973;28;20053;-68
2023/08/01 09:43:36;;;;;;;0.88;0.10;;;;;;;17.46;46.79;99520.00;4963558;28;20038;-68
2023/08/01 09:46:03;;;;;;;0.20;0.03;;;;;;;16.20;49.93;99515.22;4968571;28;20042;-67
2023/08/01 09:48:30;;;;;;;2.22;0.10;;;;;;;16.26;50.20;99519.94;4963796;28;20049;-67
2023/08/01 09:51:05;;;;;;;0.93;0.45;;;;;;;16.26;51.05;99514.66;4966066;28;20030;-68
2023/08/01 09:53:31;;;;;;;0.40;0.05;;;;;;;15.74;51.84;99521.69;4948577;28;20202;-68
2023/08/01 09:56:00;;;;;;;1.15;0.57;;;;;;;15.96;53.63;99528.63;4951267;28;20517;-68
2023/08/01 09:58:36;;;;;;;0.20;0.00;;;;;;;15.79;52.76;99522.13;4963802;28;20104;-69
2023/08/01 10:01:02;;;;;;;1.52;0.45;;;;;;;15.02;54.87;99520.50;4968480;28;20038;-69
2023/08/01 10:03:29;;;;;;;2.17;0.10;;;;;;;15.40;54.23;99511.31;4962026;28;20053;-69
2023/08/01 10:05:55;;;;;;;0.60;0.10;;;;;;;15.99;53.00;99513.41;4966145;28;20050;-69
2023/08/01 10:08:22;;;;;;;2.05;0.22;;;;;;;16.56;50.58;99515.66;4954252;28;20049;-68
2023/08/01 10:10:48;;;;;;;0.40;0.32;;;;;;;18.00;49.93;99518.56;4963261;28;20604;-68
2023/08/01 10:13:14;;;;;;;0.70;0.10;;;;;;;18.16;46.35;99514.50;4966126;28;20045;-68
2023/08/01 10:15:41;;;;;;;1.35;0.10;;;;;;;18.32;47.28;99512.13;4967732;28;20073;-69
2023/08/01 10:18:08;;;;;;;0.50;0.20;;;;;;;17.72;46.98;99509.75;4967393;28;20046;-68
2023/08/01 10:20:36;;;;;;;1.25;0.25;;;;;;;18.15;47.37;99510.22;4966726;28;21149;-68
2023/08/01 10:23:02;;;;;;;4.88;0.30;;;;;;;18.22;48.54;99512.16;4965557;28;20050;-68
2023/08/01 10:25:30;;;;;;;0.75;0.10;;;;;;;17.54;48.83;99509.63;4965122;28;20034;-68
2023/08/01 10:28:03;;;;;;;2.42;0.45;;;;;;;18.33;48.97;99512.97;4965538;28;20050;-68
2023/08/01 10:30:29;;;;;;;0.75;0.10;;;;;;;17.21;49.35;99526.66;4964408;28;20042;-66
2023/08/01 10:32:57;;;;;;;0.85;0.10;;;;;;;16.91;50.88;99524.94;4963690;28;20054;-67
2023/08/01 10:35:39;;;;;;;5.68;0.30;;;;;;;16.82;49.37;99522.16;4964212;28;20034;-68
2023/08/01 10:38:12;;;;;;;0.60;0.10;;;;;;;17.97;50.20;99526.81;4971947;28;20051;-68
2023/08/01 10:40:42;;;;;;;0.20;0.00;;;;;;;17.54;49.36;99522.81;4966467;28;20062;-68
2023/08/01 10:43:25;;;;;;;0.82;0.00;;;;;;;17.71;49.66;99531.00;4969771;28;20096;-68
2023/08/01 10:46:04;;;;;;;2.03;0.10;;;;;;;16.81;51.47;99536.31;4971023;28;20026;-68
2023/08/01 10:48:30;;;;;;;1.38;0.13;;;;;;;17.13;51.10;99531.78;4966980;28;20038;-68
2023/08/01 10:50:58;;;;;;;3.00;0.10;;;;;;;17.28;49.75;99537.53;4964085;28;20783;-68
2023/08/01 10:53:24;;;;;;;1.67;0.10;;;;;;;18.58;47.24;99524.69;4966840;28;20042;-69
2023/08/01 10:55:49;;;;;;;0.88;0.10;;;;;;;17.67;48.96;99530.47;4969588;28;20031;-68
2023/08/01 10:58:15;;;;;;;2.00;0.20;;;;;;;17.96;49.37;99534.88;4969657;28;20053;-69
2023/08/01 11:00:44;;;;;;;1.73;0.10;;;;;;;18.18;48.24;99536.34;4968669;28;20113;-68
2023/08/01 11:03:10;;;;;;;2.20;0.20;;;;;;;19.30;45.15;99517.72;4971524;28;20109;-71
2023/08/01 11:05:35;;;;;;;0.50;0.10;;;;;;;19.49;45.80;99522.06;4965850;28;20061;-68
2023/08/01 11:08:02;;;;;;;2.70;0.20;;;;;;;18.61;47.92;99519.13;4970146;28;20429;-68
2023/08/01 11:10:30;;;;;;;1.35;0.10;;;;;;;17.43;50.12;99536.97;4968279;28;20034;-68
2023/08/01 11:12:57;;;;;;;2.65;0.13;;;;;;;17.42;51.28;99534.47;4970842;28;20074;-68
2023/08/01 11:15:23;;;;;;;1.38;0.10;;;;;;;17.04;52.87;99541.34;4982958;28;20031;-69
2023/08/01 11:17:53;;;;;;;0.80;0.10;;;;;;;16.71;52.46;99539.84;4952263;28;20618;-69
2023/08/01 11:20:21;;;;;;;1.10;0.20;;;;;;;18.09;48.52;99542.50;4967473;28;20034;-68
2023/08/01 11:23:00;;;;;;;1.20;0.10;;;;;;;19.22;45.30;99531.72;4967554;28;20572;-69
2023/08/01 11:25:40;;;;;;;1.77;0.05;;;;;;;19.47;44.06;99534.63;4983744;28;20038;-69
2023/08/01 11:28:10;;;;;;;2.95;0.20;;;;;;;19.59;43.44;99536.09;4969762;28;20692;-68
2023/08/01 11:30:36;;;;;;;4.95;0.10;;;;;;;18.51;44.22;99539.50;4967028;28;20038;-68
2023/08/01 11:33:13;;;;;;;0.68;0.10;;;;;;;18.63;43.97;99546.25;4970428;28;20054;-68
2023/08/01 11:35:40;;;;;;;1.90;0.28;;;;;;;20.07;43.65;99537.44;4981101;28;20120;-68
2023/08/01 11:38:06;;;;;;;1.38;0.20;;;;;;;20.52;40.85;99525.75;4969936;28;20312;-71
2023/08/01 11:40:32;;;;;;;0.45;0.10;;;;;;;19.19;42.36;99536.47;4968124;28;20275;-68
2023/08/01 11:42:58;;;;;;;1.80;0.13;;;;;;;19.80;42.47;99546.34;4950530;28;20092;-68
2023/08/01 11:45:24;;;;;;;0.85;0.20;;;;;;;20.84;41.75;99545.53;4967488;28;20034;-68